Time;durP1;ratioP1;P1;durP2;ratioP2;P2;SDS_P1;SDS_P2;PMS_P1;PMS_P2;Temp;Humidity;BMP_temperature;BMP_pressure;BME280_temperature;BME280_humidity;BME280_pressure;Samples;Min_cycle;Max_cycle;Signal;HPM_P1;HPM_P2
2022/02/28 06:42:30;;;;;;;17.23;10.63;;;;;;;-0.74;82.44;101984.00;5579394;22;15176873;-93
2022/02/28 06:45:02;;;;;;;;;;;;;;;-0.51;82.62;102021.88;6255681;23;20020;-93
2022/02/28 06:47:47;;;;;;;17.23;9.45;;;;;;;-0.86;82.00;101962.91;6249947;23;19920;-92
2022/02/28 06:50:21;;;;;;;;;;;;;;;-0.45;82.19;102027.22;6256261;22;20031;-93
2022/02/28 06:52:48;;;;;;;16.90;10.20;;;;;;;-0.40;82.15;102025.63;6250844;22;19977;-93
2022/02/28 06:55:22;;;;;;;18.83;10.90;;;;;;;-0.71;82.08;101973.69;6223957;23;20032;-93
2022/02/28 06:57:57;;;;;;;18.95;10.15;;;;;;;-0.57;81.61;101994.81;6251954;23;20031;-95
2022/02/28 07:00:29;;;;;;;18.30;10.43;;;;;;;-0.45;81.70;102009.00;6252465;22;20020;-94
2022/02/28 07:03:01;;;;;;;26.63;11.48;;;;;;;-0.38;81.09;102003.09;6240927;23;21013;-94
2022/02/28 07:05:32;;;;;;;21.35;10.40;;;;;;;-0.39;80.90;102000.47;6244185;23;20047;-94
2022/02/28 07:08:00;;;;;;;19.67;10.45;;;;;;;-0.19;80.90;102024.34;6244212;23;20468;-94
2022/02/28 07:10:32;;;;;;;18.42;10.15;;;;;;;-0.16;80.52;102019.22;6241894;23;20317;-94
2022/02/28 07:13:09;;;;;;;21.15;10.63;;;;;;;-0.13;80.41;102027.97;6221943;23;20039;-94
2022/02/28 07:15:46;;;;;;;15.32;10.48;;;;;;;-0.28;79.66;101983.34;6243957;23;20031;-94
2022/02/28 07:18:22;;;;;;;17.40;10.10;;;;;;;-0.03;79.76;102010.84;6217730;23;20027;-95
2022/02/28 07:20:52;;;;;;;16.63;10.37;;;;;;;0.10;78.67;102010.25;6240760;23;20094;-93
2022/02/28 07:23:22;;;;;;;17.52;9.68;;;;;;;0.20;78.74;102025.22;6241758;23;20089;-95
2022/02/28 07:25:54;;;;;;;15.18;9.48;;;;;;;0.28;78.24;102014.97;6241167;23;20016;-94
2022/02/28 07:28:21;;;;;;;15.40;10.18;;;;;;;0.27;77.79;102000.19;6241249;23;20022;-93
2022/02/28 07:30:49;;;;;;;17.90;11.23;;;;;;;0.47;77.63;102014.50;6214023;23;20024;-95
2022/02/28 07:33:18;;;;;;;17.40;10.30;;;;;;;0.62;76.66;102024.34;6241913;23;20031;-94
2022/02/28 07:35:46;;;;;;;19.13;11.00;;;;;;;0.50;76.07;101992.81;6216630;23;20019;-94
2022/02/28 07:38:20;;;;;;;17.33;10.57;;;;;;;0.94;75.42;102036.28;6244466;23;20012;-96
2022/02/28 07:40:54;;;;;;;17.15;10.07;;;;;;;0.82;74.75;102009.94;6247473;23;20427;-95
2022/02/28 07:43:29;;;;;;;16.27;9.95;;;;;;;0.95;74.63;102024.97;6247004;22;20028;-96
2022/02/28 07:46:00;;;;;;;15.52;9.52;;;;;;;0.81;73.85;101986.44;6221964;23;20066;-95
2022/02/28 07:48:34;;;;;;;17.10;10.50;;;;;;;1.11;73.52;102025.22;6249005;23;20013;-95
2022/02/28 07:51:01;;;;;;;15.32;9.60;;;;;;;1.34;74.46;102063.06;6219108;23;20436;-96
2022/02/28 07:53:35;;;;;;;19.77;11.65;;;;;;;1.21;74.12;102016.72;6247582;23;20012;-96
2022/02/28 07:56:13;;;;;;;19.90;11.35;;;;;;;1.36;72.88;102023.09;6255098;23;20017;-94
2022/02/28 07:58:43;;;;;;;17.20;10.65;;;;;;;1.44;72.33;102043.19;6231688;23;20019;-94
2022/02/28 08:01:15;;;;;;;16.52;10.05;;;;;;;1.30;72.01;101991.66;6263280;22;20016;-95
2022/02/28 08:03:51;;;;;;;16.17;10.50;;;;;;;1.71;72.56;102031.50;6268761;22;20024;-96
2022/02/28 08:06:39;;;;;;;15.90;9.90;;;;;;;1.88;72.55;102038.69;6263945;22;20012;-94
2022/02/28 08:09:38;;;;;;;17.52;10.77;;;;;;;1.96;69.64;102042.28;6228133;23;20027;-95
2022/02/28 08:12:07;;;;;;;18.83;11.18;;;;;;;2.00;72.63;102025.81;6252294;23;20020;-95
2022/02/28 08:14:45;;;;;;;15.68;10.30;;;;;;;2.19;72.63;102019.97;6262030;23;20087;-95
2022/02/28 08:17:21;;;;;;;17.42;10.70;;;;;;;2.45;68.71;102034.25;6269496;22;20004;-95
2022/02/28 08:20:01;;;;;;;17.50;10.70;;;;;;;2.37;67.52;102012.34;6242460;23;20016;-94
2022/02/28 08:22:28;;;;;;;16.08;10.52;;;;;;;2.62;68.59;102036.19;6229374;23;20345;-96
2022/02/28 08:25:00;;;;;;;16.80;11.05;;;;;;;2.90;68.43;102030.38;6257348;23;20005;-95
2022/02/28 08:27:53;;;;;;;18.52;10.75;;;;;;;2.80;65.89;102007.63;6269706;22;20039;-95
2022/02/28 08:30:26;;;;;;;20.02;11.20;;;;;;;2.94;65.23;102026.94;6239223;23;20024;-95
2022/02/28 08:33:18;;;;;;;18.33;11.75;;;;;;;3.01;64.88;102041.84;6232601;23;20046;-95
2022/02/28 08:35:49;;;;;;;19.35;11.80;;;;;;;3.30;65.20;102065.72;6234931;23;20455;-95
2022/02/28 08:38:23;;;;;;;17.92;11.98;;;;;;;3.03;64.00;101997.38;6256553;23;20452;-95
2022/02/28 08:40:56;;;;;;;18.65;11.73;;;;;;;3.24;63.21;102012.41;6226206;23;20039;-96
2022/02/28 08:43:29;;;;;;;16.00;10.82;;;;;;;3.66;63.36;102033.69;6230346;23;20020;-94
2022/02/28 08:46:01;;;;;;;16.05;10.93;;;;;;;3.85;62.72;101996.28;6230004;23;20377;-95
2022/02/28 08:48:36;;;;;;;15.75;11.05;;;;;;;4.44;60.14;102000.03;6224141;23;20479;-95
2022/02/28 08:51:10;;;;;;;17.20;11.32;;;;;;;5.44;54.64;102025.63;6249468;23;20516;-94
2022/02/28 08:53:42;;;;;;;16.05;11.20;;;;;;;5.77;52.49;101994.06;6254836;23;20043;-95
2022/02/28 08:56:30;;;;;;;15.30;10.35;;;;;;;6.34;50.56;102023.72;6260216;22;20020;-96
2022/02/28 08:59:01;;;;;;;17.92;10.27;;;;;;;7.03;48.16;102038.31;6253353;23;20020;-95
2022/02/28 09:01:38;;;;;;;15.65;10.25;;;;;;;7.10;48.83;102018.06;6250582;23;20071;-95
2022/02/28 09:04:14;;;;;;;17.63;10.23;;;;;;;7.68;47.80;102059.78;6230128;23;20024;-96
2022/02/28 09:06:45;;;;;;;15.63;9.98;;;;;;;8.08;47.39;102060.28;6252884;23;20019;-95
2022/02/28 09:09:34;;;;;;;14.90;10.48;;;;;;;8.24;43.75;102034.59;6255322;23;20390;-96
2022/02/28 09:12:31;;;;;;;15.32;10.45;;;;;;;8.03;44.66;101996.13;6229277;23;20020;-96
2022/02/28 09:15:31;;;;;;;;;;;;;;;;;;;;;
2022/02/28 09:18:26;;;;;;;13.93;10.02;;;;;;;8.77;42.18;102024.28;6249889;23;20020;-95
2022/02/28 09:20:56;;;;;;;16.23;10.20;;;;;;;8.85;42.47;102034.75;6248419;23;20432;-95
2022/02/28 09:23:26;;;;;;;15.70;9.90;;;;;;;9.01;42.58;102064.47;6247238;23;20456;-95
2022/02/28 09:26:11;;;;;;;16.63;10.27;;;;;;;9.00;41.56;102036.28;6250955;23;20051;-96
2022/02/28 09:28:50;;;;;;;16.05;10.55;;;;;;;8.88;41.76;102025.91;6249308;23;20471;-96
2022/02/28 09:31:50;;;;;;;;;;;;;;;;;;;;;
2022/02/28 09:34:58;;;;;;;15.00;10.98;;;;;;;7.95;42.64;101988.31;6251074;23;20464;-95
2022/02/28 09:37:27;;;;;;;15.25;11.38;;;;;;;7.58;43.42;101985.16;6248300;23;20189;-95
2022/02/28 09:44:02;;;;;;;19.50;12.20;;;;;;;7.62;44.22;101993.94;6219599;23;20032;-95
2022/02/28 09:46:46;;;;;;;15.70;10.32;;;;;;;8.05;44.41;101989.06;6192397;23;20254;-95
2022/02/28 09:52:37;;;;;;;14.30;10.05;;;;;;;9.47;41.23;102010.00;6212139;22;20111;-94
2022/02/28 09:55:42;;;;;;;17.80;11.45;;;;;;;10.35;38.72;102028.72;6215820;23;20027;-96
2022/02/28 09:58:16;;;;;;;16.70;10.40;;;;;;;10.26;39.16;101983.00;6223046;23;20029;-94
2022/02/28 10:01:07;;;;;;;18.50;12.18;;;;;;;10.92;37.38;101993.03;6216843;23;20218;-96
2022/02/28 10:04:06;;;;;;;15.40;10.65;;;;;;;11.22;36.07;101979.94;6197411;23;20039;-95
2022/02/28 10:10:39;;;;;;;13.85;11.18;;;;;;;12.69;33.43;102037.06;6187498;23;20024;-95
2022/02/28 10:14:00;;;;;;;14.05;10.15;;;;;;;12.74;33.29;101982.84;6191928;23;20357;-95
2022/02/28 10:16:44;;;;;;;17.23;11.05;;;;;;;13.59;32.58;102040.44;6216379;23;20027;-96
2022/02/28 10:19:31;;;;;;;15.18;11.20;;;;;;;13.86;32.55;102023.50;6194233;23;20043;-95
2022/02/28 10:22:24;;;;;;;16.75;10.93;;;;;;;14.43;30.66;101994.88;6225733;23;20020;-95
2022/02/28 10:25:46;;;;;;;;;;;;;;;;;;;;;
2022/02/28 10:28:24;;;;;;;13.70;10.80;;;;;;;14.60;29.36;101977.31;6217770;23;20024;-95
2022/02/28 10:31:25;;;;;;;;;;;;;;;;;;;;;
2022/02/28 10:34:30;;;;;;;;;;;;;;;;;;;;;
2022/02/28 10:37:14;;;;;;;14.63;11.00;;;;;;;14.73;29.06;101961.69;6135500;23;20025;-94
2022/02/28 10:40:00;;;;;;;14.10;10.75;;;;;;;15.16;28.08;101982.16;6174792;23;20018;-96
2022/02/28 10:43:10;;;;;;;;;;;;;;;;;;;;;
2022/02/28 10:45:59;;;;;;;14.02;10.70;;;;;;;15.58;27.89;102000.94;6169833;23;20049;-95
2022/02/28 10:49:09;;;;;;;15.43;10.77;;;;;;;16.24;26.67;102022.09;6171560;23;20064;-94
2022/02/28 10:52:12;;;;;;;13.15;10.48;;;;;;;15.77;26.90;101980.50;6162053;23;20022;-94
2022/02/28 10:55:21;;;;;;;12.55;10.07;;;;;;;15.55;27.36;101958.34;6159058;23;20018;-96
2022/02/28 10:58:06;;;;;;;12.52;9.60;;;;;;;15.38;26.19;101952.81;6170352;23;20336;-94
2022/02/28 11:00:58;;;;;;;12.23;9.38;;;;;;;16.11;26.82;102014.63;6218572;23;20055;-95
2022/02/28 11:04:04;;;;;;;11.40;9.10;;;;;;;17.00;24.67;102010.56;6171564;23;20021;-95
2022/02/28 11:06:50;;;;;;;10.10;9.07;;;;;;;17.21;24.44;101965.78;6215887;23;20043;-92
2022/02/28 11:09:35;;;;;;;13.40;10.52;;;;;;;17.42;24.30;102000.41;6193834;23;20079;-93
2022/02/28 11:12:30;;;;;;;11.40;9.15;;;;;;;17.48;23.01;101940.28;6174064;23;20020;-95
2022/02/28 11:15:32;;;;;;;13.48;9.63;;;;;;;17.84;23.12;101970.59;6214441;23;20021;-94
2022/02/28 11:18:15;;;;;;;;;;;;;;;;;;;;;
2022/02/28 11:20:55;;;;;;;13.18;9.80;;;;;;;17.58;22.73;101951.41;6211479;23;20056;-94
2022/02/28 11:24:05;;;;;;;10.83;9.10;;;;;;;16.88;24.12;101960.28;6214151;23;20028;-94
2022/02/28 11:27:01;;;;;;;12.02;9.50;;;;;;;15.99;24.50;101963.53;6162810;23;20082;-92
2022/02/28 11:30:29;;;;;;;10.98;9.25;;;;;;;14.11;27.74;101967.59;6214481;23;20070;-94
2022/02/28 11:33:14;;;;;;;11.73;9.65;;;;;;;13.66;28.07;101932.84;6210828;23;20016;-95
2022/02/28 11:36:05;;;;;;;13.32;10.00;;;;;;;13.54;28.94;101991.78;6216452;23;20317;-95
2022/02/28 11:38:50;;;;;;;13.45;10.50;;;;;;;12.83;29.63;101971.91;6209750;23;20024;-95
2022/02/28 11:41:20;;;;;;;12.57;9.65;;;;;;;12.23;30.31;101943.63;6211076;23;20095;-94
2022/02/28 11:43:54;;;;;;;13.43;10.15;;;;;;;11.74;31.51;101945.88;6212544;23;20076;-95
2022/02/28 11:47:01;;;;;;;12.93;10.25;;;;;;;11.38;32.53;101983.06;6182783;23;20056;-95
2022/02/28 11:49:45;;;;;;;16.33;10.60;;;;;;;10.95;33.42;101985.91;6193264;23;20052;-96
2022/02/28 11:52:35;;;;;;;15.40;10.48;;;;;;;10.72;33.88;101975.81;6179512;23;20059;-93
2022/02/28 11:55:28;;;;;;;;;;;;;;;;;;;;;
2022/02/28 11:58:35;;;;;;;14.90;10.88;;;;;;;10.17;35.47;101918.72;6191397;23;20049;-92
2022/02/28 12:01:42;;;;;;;13.30;9.35;;;;;;;10.29;35.47;101956.47;6200523;23;20013;-93
2022/02/28 12:04:21;;;;;;;14.98;10.10;;;;;;;9.86;35.29;101904.38;6194013;23;20025;-93
2022/02/28 12:07:06;;;;;;;14.07;10.20;;;;;;;10.22;35.78;101973.41;6199164;23;20104;-94
2022/02/28 12:09:37;;;;;;;13.40;9.52;;;;;;;10.33;35.44;101971.38;6187632;23;20033;-96
2022/02/28 12:12:27;;;;;;;13.20;9.82;;;;;;;10.20;35.90;101960.19;6196634;23;20368;-94
2022/02/28 12:15:01;;;;;;;13.68;9.73;;;;;;;10.14;35.84;101947.91;6191808;23;20028;-95
2022/02/28 12:17:56;;;;;;;15.00;9.90;;;;;;;10.32;35.92;101956.41;6189395;23;20111;-96
2022/02/28 12:20:50;;;;;;;14.10;10.00;;;;;;;10.06;35.18;101914.56;6193863;23;20104;-95
2022/02/28 12:23:30;;;;;;;12.85;9.63;;;;;;;10.09;35.38;101898.59;6176097;23;20048;-95
2022/02/28 12:26:09;;;;;;;13.45;9.20;;;;;;;10.30;34.88;101890.22;6198507;23;20091;-94
2022/02/28 12:28:40;;;;;;;11.23;8.73;;;;;;;10.95;34.83;101945.25;6199702;23;20408;-96
2022/02/28 12:31:34;;;;;;;;;;;;;;;11.52;34.16;101949.09;6183599;23;20063;-94
2022/02/28 12:34:08;;;;;;;12.38;9.13;;;;;;;11.73;32.32;101877.78;6187892;23;19968;-94
2022/02/28 12:36:45;;;;;;;15.43;10.48;;;;;;;12.43;30.98;101902.31;6185391;23;20029;-94
2022/02/28 12:39:20;;;;;;;13.13;9.48;;;;;;;13.59;30.15;101939.28;6185250;23;20014;-95
2022/02/28 12:41:56;;;;;;;12.55;9.20;;;;;;;14.66;28.35;101910.41;6184885;23;20021;-94
2022/02/28 12:44:24;;;;;;;14.48;8.95;;;;;;;15.66;26.34;101899.09;6185245;23;20040;-94
2022/02/28 12:46:55;;;;;;;12.52;8.60;;;;;;;16.06;26.31;101876.78;6184517;23;20025;-94
2022/02/28 12:49:27;;;;;;;10.32;8.38;;;;;;;17.71;23.40;101896.28;6187357;23;20017;-94
2022/02/28 12:52:02;;;;;;;11.55;8.95;;;;;;;18.18;22.41;101862.41;6207345;23;20103;-94
2022/02/28 12:54:32;;;;;;;12.13;9.57;;;;;;;18.06;22.79;101862.25;6216803;23;20099;-94
2022/02/28 12:57:04;;;;;;;12.77;8.98;;;;;;;18.60;21.91;101889.63;6217618;23;20124;-94
2022/02/28 12:59:56;;;;;;;10.00;7.97;;;;;;;19.20;21.74;101896.78;6187179;23;20123;-93
2022/02/28 13:02:33;;;;;;;11.23;8.65;;;;;;;19.02;21.23;101860.31;6193211;23;20320;-94
2022/02/28 13:05:05;;;;;;;9.68;8.55;;;;;;;19.47;20.70;101861.19;6216332;23;20572;-93
2022/02/28 13:07:38;;;;;;;10.82;8.25;;;;;;;19.64;20.35;101869.13;6216627;23;20399;-94
2022/02/28 13:10:13;;;;;;;11.13;8.50;;;;;;;19.50;20.32;101842.25;6214704;23;20017;-93
2022/02/28 13:13:09;;;;;;;;;;;;;;;;;;;;;
2022/02/28 13:15:46;;;;;;;10.05;7.78;;;;;;;20.89;19.22;101861.06;6192982;23;20012;-96
2022/02/28 13:18:15;;;;;;;9.63;8.25;;;;;;;21.65;18.34;101855.84;6217776;23;20024;-94
2022/02/28 13:20:52;;;;;;;8.40;7.28;;;;;;;22.37;18.35;101886.63;6217071;23;20020;-95
2022/02/28 13:23:36;;;;;;;9.93;8.18;;;;;;;23.10;17.15;101816.34;6215826;23;20028;-93
2022/02/28 13:26:11;;;;;;;9.73;8.45;;;;;;;24.07;16.59;101876.28;6217767;23;20372;-94
2022/02/28 13:29:03;;;;;;;9.63;7.88;;;;;;;23.55;16.41;101811.94;6212731;23;20094;-96
2022/02/28 13:31:42;;;;;;;10.48;8.82;;;;;;;23.15;16.59;101834.91;6217602;23;20087;-95
2022/02/28 13:34:17;;;;;;;10.07;8.07;;;;;;;23.49;16.63;101852.94;6216657;23;20051;-96
2022/02/28 13:36:53;;;;;;;10.40;7.97;;;;;;;23.65;16.49;101829.13;6221785;23;20020;-96
2022/02/28 13:39:29;;;;;;;10.70;7.97;;;;;;;24.02;16.50;101835.19;6220215;23;20024;-96
2022/02/28 13:42:18;;;;;;;10.23;7.60;;;;;;;24.03;15.59;101822.50;6222779;23;20024;-96
2022/02/28 13:45:22;;;;;;;;;;;;;;;;;;;;;
2022/02/28 13:48:23;;;;;;;10.38;7.63;;;;;;;22.81;16.71;101856.41;6198328;23;20027;-96
2022/02/28 13:51:04;;;;;;;9.45;7.25;;;;;;;21.88;17.09;101786.81;6196699;23;20108;-96
2022/02/28 13:53:47;;;;;;;10.48;8.02;;;;;;;19.93;18.88;101789.34;6200205;23;20076;-95
2022/02/28 13:56:32;;;;;;;8.70;7.65;;;;;;;18.93;20.16;101839.38;6233271;23;20055;-95
2022/02/28 13:59:15;;;;;;;8.85;7.95;;;;;;;17.31;21.65;101803.78;6232952;23;20012;-95
2022/02/28 14:01:59;;;;;;;10.27;8.40;;;;;;;16.50;22.82;101773.09;6232241;23;20005;-95
2022/02/28 14:04:34;;;;;;;12.57;8.57;;;;;;;17.24;22.44;101818.41;6211101;23;20005;-95
2022/02/28 14:07:05;;;;;;;11.73;8.30;;;;;;;17.46;21.76;101776.16;6236635;23;20013;-95
2022/02/28 14:09:35;;;;;;;10.70;8.57;;;;;;;18.33;21.10;101779.38;6229911;23;20020;-94
2022/02/28 14:12:15;;;;;;;10.98;8.00;;;;;;;19.00;20.15;101780.81;6221102;23;20454;-95
2022/02/28 14:15:07;;;;;;;9.95;7.78;;;;;;;20.39;19.01;101821.34;6219666;23;20108;-94
2022/02/28 14:17:35;;;;;;;10.73;8.15;;;;;;;21.18;18.69;101795.31;6216940;23;20345;-95
2022/02/28 14:20:26;;;;;;;;;;;;;;;;;;;;;
2022/02/28 14:23:24;;;;;;;8.82;7.90;;;;;;;19.02;19.31;101806.63;6216157;23;20702;-95
2022/02/28 14:26:19;;;;;;;9.50;7.78;;;;;;;16.94;21.36;101768.19;6192630;23;20020;-95
2022/02/28 14:29:02;;;;;;;9.88;7.72;;;;;;;15.82;22.98;101769.28;6230168;23;20057;-96
2022/02/28 14:32:01;;;;;;;;;;;;;;;;;;;;;
2022/02/28 14:34:38;;;;;;;10.85;7.80;;;;;;;15.46;23.57;101809.19;6220096;23;20071;-95
2022/02/28 14:37:28;;;;;;;;;;;;;;;;;;;;;
2022/02/28 14:40:12;;;;;;;9.70;8.23;;;;;;;15.01;24.12;101807.59;6223246;23;20012;-95
2022/02/28 14:43:17;;;;;;;10.85;8.38;;;;;;;14.01;25.72;101759.28;6181527;23;20025;-94
2022/02/28 14:46:10;;;;;;;11.02;8.60;;;;;;;13.40;28.07;101789.16;6197435;23;20099;-96
2022/02/28 14:48:50;;;;;;;11.77;8.55;;;;;;;12.74;29.44;101766.69;6189707;23;20764;-94
2022/02/28 14:51:42;;;;;;;13.45;8.65;;;;;;;12.63;30.01;101791.81;6167778;23;20031;-95
2022/02/28 14:54:31;;;;;;;;;;;;;;;;;;;;;
2022/02/28 14:57:06;;;;;;;12.27;8.23;;;;;;;12.55;28.24;101791.22;6215116;23;20017;-93
2022/02/28 14:59:36;;;;;;;12.90;8.15;;;;;;;12.62;28.56;101819.31;6218588;23;20079;-94
2022/02/28 15:02:36;;;;;;;11.77;8.55;;;;;;;11.97;29.47;101755.00;6197582;23;20044;-94
2022/02/28 15:05:20;;;;;;;10.97;8.20;;;;;;;11.93;31.12;101783.44;6201236;23;20024;-94
2022/02/28 15:08:10;;;;;;;;;;;;;;;;;;;;;
2022/02/28 15:11:16;;;;;;;;;;;;;;;;;;;;;
2022/02/28 15:13:54;;;;;;;;;;;;;;;;;;;;;
2022/02/28 15:16:38;;;;;;;13.02;7.82;;;;;;;10.82;33.63;101745.94;6238951;23;20020;-94
2022/02/28 15:19:41;;;;;;;;;;;;;;;;;;;;;
2022/02/28 15:22:34;;;;;;;13.38;8.48;;;;;;;10.57;33.80;101748.34;6217924;23;20394;-96
2022/02/28 15:25:02;;;;;;;15.80;8.68;;;;;;;10.46;33.31;101740.69;6185734;23;20023;-95
2022/02/28 15:27:36;;;;;;;12.25;7.80;;;;;;;10.40;33.37;101745.25;6225752;23;20039;-96
2022/02/28 15:30:11;;;;;;;11.15;7.80;;;;;;;10.26;33.23;101744.72;6234361;23;20032;-94
2022/02/28 15:33:05;;;;;;;13.43;7.70;;;;;;;10.28;33.77;101741.13;6240790;23;20016;-96
2022/02/28 15:36:19;;;;;;;12.52;7.45;;;;;;;10.35;34.06;101777.16;6206961;23;20016;-94
2022/02/28 15:39:15;;;;;;;;;;;;;;;;;;;;;
2022/02/28 15:41:44;;;;;;;12.60;8.35;;;;;;;9.98;34.40;101733.88;6241165;23;20005;-96
2022/02/28 15:47:11;;;;;;;11.77;8.00;;;;;;;9.87;34.88;101736.78;6223893;23;20023;-96
2022/02/28 15:49:58;;;;;;;11.18;7.00;;;;;;;10.06;34.63;101776.94;6223718;23;20047;-96
2022/02/28 15:52:49;;;;;;;11.23;7.68;;;;;;;10.09;35.15;101798.88;6223210;23;20017;-96
2022/02/28 15:55:35;;;;;;;11.60;7.55;;;;;;;9.64;35.57;101731.13;6238263;23;20009;-96
2022/02/28 15:58:28;;;;;;;;;;;;;;;;;;;;;
2022/02/28 16:01:50;;;;;;;;;;;;;;;;;;;;;
2022/02/28 16:04:43;;;;;;;10.73;6.80;;;;;;;9.52;35.69;101756.06;6222207;23;20044;-96
2022/02/28 16:07:32;;;;;;;11.55;7.07;;;;;;;9.61;36.12;101787.59;6197304;23;20063;-95
2022/02/28 16:13:19;;;;;;;;;;;;;;;;;;;;;
2022/02/28 16:16:28;;;;;;;9.53;6.60;;;;;;;9.28;36.54;101756.59;6197094;23;20025;-94
2022/02/28 16:19:05;;;;;;;9.23;6.97;;;;;;;9.21;36.86;101739.09;6220579;23;20451;-94
2022/02/28 16:21:50;;;;;;;11.25;7.45;;;;;;;9.26;36.98;101761.91;6220412;23;20324;-95
2022/02/28 16:24:38;;;;;;;8.73;6.15;;;;;;;8.89;38.20;101710.66;6216216;23;20104;-94
2022/02/28 16:27:37;;;;;;;;;;;;;;;;;;;;;
2022/02/28 16:30:17;;;;;;;10.48;6.80;;;;;;;8.95;38.07;101732.56;6098995;23;20521;-94
2022/02/28 16:32:58;;;;;;;;;;;;;;;;;;;;;
2022/02/28 16:35:29;;;;;;;11.52;7.15;;;;;;;8.60;38.81;101704.16;6088947;23;20031;-94
2022/02/28 16:38:11;;;;;;;;;;;;;;;;;;;;;
2022/02/28 16:40:57;;;;;;;10.88;7.50;;;;;;;8.61;39.20;101724.38;6090522;23;20022;-95
2022/02/28 16:43:45;;;;;;;10.20;7.45;;;;;;;8.39;39.56;101696.59;6097954;23;20058;-96
2022/02/28 16:47:25;;;;;;;11.07;7.82;;;;;;;8.31;40.24;101704.63;6100679;23;20525;-94
2022/02/28 16:50:04;;;;;;;12.57;7.20;;;;;;;8.55;40.52;101769.34;6103744;23;20042;-96
2022/02/28 16:52:53;;;;;;;11.07;7.78;;;;;;;8.17;40.67;101709.25;6101606;23;20026;-96
2022/02/28 16:55:29;;;;;;;11.10;7.90;;;;;;;8.16;41.41;101715.44;6105424;23;20082;-96
2022/02/28 16:58:19;;;;;;;;;;;;;;;;;;;;;
2022/02/28 17:00:55;;;;;;;12.30;7.60;;;;;;;7.96;41.38;101705.19;6226658;23;20026;-96
2022/02/28 17:09:50;;;;;;;10.60;7.22;;;;;;;7.53;42.77;101696.16;6205120;23;20013;-96
2022/02/28 17:13:02;;;;;;;12.52;7.78;;;;;;;7.61;43.33;101737.31;6224159;23;20023;-96
2022/02/28 17:15:43;;;;;;;10.77;7.88;;;;;;;7.31;44.04;101696.44;6224264;23;20016;-95
2022/02/28 17:21:50;;;;;;;13.07;8.32;;;;;;;7.24;44.75;101696.56;6202844;23;20016;-96
2022/02/28 17:24:33;;;;;;;13.98;7.72;;;;;;;7.17;45.09;101708.03;6233559;23;20024;-96
2022/02/28 17:28:00;;;;;;;14.23;7.90;;;;;;;7.24;45.03;101731.63;6215118;23;20051;-96
2022/02/28 17:31:07;;;;;;;;;;;;;;;;;;;;;
2022/02/28 17:58:13;;;;;;;17.25;10.82;;;;;;;6.34;50.11;101736.94;6255806;22;20039;-94
2022/02/28 18:01:00;;;;;;;;;;;;;;;;;;;;;
2022/02/28 18:03:52;;;;;;;;;;;;;;;;;;;;;
2022/02/28 18:06:29;;;;;;;14.10;9.55;;;;;;;6.16;51.36;101735.34;6300899;22;20075;-94
2022/02/28 18:09:16;;;;;;;;;;;;;;;6.47;50.65;101788.59;6300961;22;20072;-94
2022/02/28 18:11:59;;;;;;;;;;;;;;;;;;;;;
2022/02/28 18:14:53;;;;;;;15.23;8.80;;;;;;;6.26;50.29;101768.59;6299573;22;20024;-94
2022/02/28 18:17:36;;;;;;;20.10;10.43;;;;;;;6.36;50.29;101779.91;6300018;22;20016;-94
2022/02/28 18:20:27;;;;;;;14.40;8.40;;;;;;;6.52;48.28;101801.72;6294121;22;20031;-94
2022/02/28 18:23:15;;;;;;;13.70;9.02;;;;;;;6.36;46.93;101764.13;6285565;22;20019;-94
2022/02/28 18:26:06;;;;;;;15.32;10.20;;;;;;;6.20;47.65;101741.47;6291346;22;20020;-95
2022/02/28 18:28:53;;;;;;;21.08;10.85;;;;;;;6.46;48.15;101784.22;6264036;22;20041;-92
2022/02/28 18:32:25;;;;;;;21.23;11.55;;;;;;;6.53;48.34;101809.59;6285769;22;20024;-93
2022/02/28 18:35:07;;;;;;;;;;;;;;;;;;;;;
2022/02/28 18:38:10;;;;;;;20.00;10.98;;;;;;;6.14;48.06;101755.50;6287404;22;20023;-93
2022/02/28 18:40:54;;;;;;;21.55;10.70;;;;;;;6.29;48.01;101786.13;6292954;22;20019;-92
2022/02/28 18:43:23;;;;;;;21.17;11.45;;;;;;;6.19;48.91;101780.03;6287888;22;20110;-92
2022/02/28 18:46:10;;;;;;;17.65;10.25;;;;;;;6.14;49.14;101789.69;6260435;22;20093;-92
2022/02/28 18:48:49;;;;;;;23.50;13.75;;;;;;;5.94;50.34;101763.56;6286854;22;20035;-92
2022/02/28 18:51:49;;;;;;;20.85;12.13;;;;;;;5.82;49.94;101750.47;6286114;22;20015;-92
2022/02/28 18:54:22;;;;;;;17.33;10.55;;;;;;;5.73;49.41;101747.00;6286585;22;20561;-94
2022/02/28 18:57:07;;;;;;;17.48;10.40;;;;;;;5.97;48.70;101802.09;6286378;22;20027;-93
2022/02/28 19:00:10;;;;;;;;;;;;;;;;;;;;;
2022/02/28 19:03:44;;;;;;;17.02;9.88;;;;;;;5.69;48.27;101769.78;6282000;22;20024;-93
2022/02/28 19:06:41;;;;;;;18.63;10.10;;;;;;;5.66;47.44;101759.31;6266734;22;20030;-95
2022/02/28 19:12:16;;;;;;;;;;;;;;;;;;;;;
2022/02/28 19:14:51;;;;;;;23.60;13.05;;;;;;;5.76;49.48;101805.69;6252995;23;20020;-93
2022/02/28 19:17:21;;;;;;;23.20;13.07;;;;;;;5.45;49.78;101776.03;6253547;23;20032;-95
2022/02/28 19:20:09;;;;;;;23.27;13.20;;;;;;;5.33;49.85;101764.72;6252727;22;20024;-93
2022/02/28 19:22:54;;;;;;;;;;;;;;;;;;;;;
2022/02/28 19:26:01;;;;;;;;;;;;;;;;;;;;;
2022/02/28 19:28:33;;;;;;;30.75;15.88;;;;;;;5.09;52.79;101763.88;6260371;23;20024;-95
2022/02/28 19:31:16;;;;;;;30.88;16.08;;;;;;;5.44;54.34;101805.81;6260205;22;20399;-94
2022/02/28 19:34:19;;;;;;;31.83;16.40;;;;;;;5.17;55.74;101770.00;6259365;22;20023;-94
2022/02/28 19:37:09;;;;;;;31.50;16.98;;;;;;;5.16;55.33;101789.28;6236969;23;20031;-94
2022/02/28 19:39:56;;;;;;;29.48;16.42;;;;;;;5.12;56.07;101791.91;6233732;23;20533;-94
2022/02/28 19:42:36;;;;;;;25.83;15.38;;;;;;;5.25;56.06;101814.63;6256946;22;20012;-94
2022/02/28 19:45:22;;;;;;;27.10;14.60;;;;;;;4.81;56.88;101751.72;6234359;23;20027;-91
2022/02/28 19:47:58;;;;;;;24.63;14.60;;;;;;;5.00;56.51;101778.81;6255705;23;20110;-92
2022/02/28 19:50:39;;;;;;;25.70;14.00;;;;;;;5.07;57.50;101823.41;6254333;22;20095;-93
2022/02/28 19:53:14;;;;;;;26.80;14.05;;;;;;;4.63;56.97;101751.72;6260974;23;20031;-94
2022/02/28 19:56:27;;;;;;;25.83;13.70;;;;;;;4.61;57.41;101763.97;6265840;22;20028;-94
2022/02/28 19:59:37;;;;;;;25.35;13.93;;;;;;;4.90;56.98;101822.56;6219557;22;20015;-95
2022/02/28 20:02:23;;;;;;;26.23;14.60;;;;;;;4.68;57.17;101791.97;6269449;22;20068;-94
2022/02/28 20:05:13;;;;;;;25.98;13.88;;;;;;;4.60;57.25;101776.22;6245135;23;20058;-95
2022/02/28 20:08:33;;;;;;;27.13;14.50;;;;;;;4.80;57.13;101826.06;6270316;23;20026;-95
2022/02/28 20:11:16;;;;;;;22.88;13.75;;;;;;;4.57;56.86;101776.22;6268525;23;20024;-94
2022/02/28 20:14:24;;;;;;;23.35;14.50;;;;;;;4.50;57.04;101779.72;6254934;22;20055;-94
2022/02/28 20:17:10;;;;;;;25.75;14.30;;;;;;;4.72;57.23;101818.19;6261638;22;20044;-95
2022/02/28 20:20:13;;;;;;;24.13;14.40;;;;;;;4.30;57.50;101756.13;6236138;23;20072;-95
2022/02/28 20:23:08;;;;;;;30.13;18.30;;;;;;;4.34;58.34;101768.38;6257538;22;20024;-96
2022/02/28 20:26:05;;;;;;;25.05;14.85;;;;;;;4.53;58.44;101816.47;6257117;23;20068;-95
2022/02/28 20:29:14;;;;;;;25.08;14.50;;;;;;;4.26;58.78;101782.31;6262252;22;20077;-96
2022/02/28 20:31:59;;;;;;;29.92;15.90;;;;;;;4.44;59.35;101813.81;6253283;22;20062;-95
2022/02/28 20:34:47;;;;;;;26.25;16.13;;;;;;;4.16;59.90;101779.69;6251744;22;20035;-96
2022/02/28 20:37:42;;;;;;;27.85;15.95;;;;;;;3.95;60.17;101748.22;6251701;22;20016;-96
2022/02/28 20:40:15;;;;;;;23.20;14.82;;;;;;;4.16;61.05;101797.19;6253915;22;20020;-94
2022/02/28 20:42:52;;;;;;;28.30;15.45;;;;;;;3.88;61.15;101756.94;6252214;23;20385;-95
2022/02/28 20:46:14;;;;;;;;;;;;;;;;;;;;;
2022/02/28 20:49:01;;;;;;;31.00;17.45;;;;;;;4.20;61.55;101823.41;6246478;23;20027;-93
2022/02/28 20:51:41;;;;;;;33.83;17.27;;;;;;;3.87;62.09;101777.03;6250357;23;20017;-93
2022/02/28 20:54:22;;;;;;;28.30;16.98;;;;;;;3.89;62.52;101787.53;6249874;23;20383;-92
2022/02/28 20:57:01;;;;;;;28.10;16.20;;;;;;;3.67;62.15;101759.50;6246475;22;20078;-94
2022/02/28 20:59:33;;;;;;;27.92;16.08;;;;;;;3.96;62.64;101823.34;6246993;23;20020;-93
2022/02/28 21:02:08;;;;;;;30.02;16.27;;;;;;;3.58;63.31;101769.97;6246288;22;20503;-93
2022/02/28 21:04:43;;;;;;;26.73;16.27;;;;;;;3.48;63.82;101759.44;6247474;22;20019;-93
2022/02/28 21:07:28;;;;;;;;;;;;;;;;;;;;;
2022/02/28 21:09:57;;;;;;;24.95;14.82;;;;;;;3.65;63.55;101792.66;6244460;23;20046;-94